sensor_id;sensor_type;location;lat;lon;timestamp;pressure;altitude;pressure_sealevel;temperature
16956;BMP180;8594;52.052;8.354;2022-08-19T00:00:36;100422.00;;;23.10
16956;BMP180;8594;52.052;8.354;2022-08-19T00:03:05;100425.00;;;23.20
16956;BMP180;8594;52.052;8.354;2022-08-19T00:05:33;100428.00;;;23.10
16956;BMP180;8594;52.052;8.354;2022-08-19T00:08:00;100437.00;;;23.10
16956;BMP180;8594;52.052;8.354;2022-08-19T00:10:27;100436.00;;;23.30
16956;BMP180;8594;52.052;8.354;2022-08-19T00:12:54;100433.00;;;23.10
16956;BMP180;8594;52.052;8.354;2022-08-19T00:15:22;100422.00;;;23.20
16956;BMP180;8594;52.052;8.354;2022-08-19T00:17:49;100437.00;;;23.20
16956;BMP180;8594;52.052;8.354;2022-08-19T00:20:21;100435.00;;;23.10
16956;BMP180;8594;52.052;8.354;2022-08-19T00:22:48;100434.00;;;23.10
16956;BMP180;8594;52.052;8.354;2022-08-19T00:25:16;100435.00;;;23.00
16956;BMP180;8594;52.052;8.354;2022-08-19T00:27:43;100435.00;;;23.00
16956;BMP180;8594;52.052;8.354;2022-08-19T00:30:11;100440.00;;;23.30
16956;BMP180;8594;52.052;8.354;2022-08-19T00:32:39;100440.00;;;22.80
16956;BMP180;8594;52.052;8.354;2022-08-19T00:35:07;100437.00;;;22.70
16956;BMP180;8594;52.052;8.354;2022-08-19T00:37:36;100438.00;;;23.00
16956;BMP180;8594;52.052;8.354;2022-08-19T00:40:05;100427.00;;;23.30
16956;BMP180;8594;52.052;8.354;2022-08-19T00:42:32;100413.00;;;23.30
16956;BMP180;8594;52.052;8.354;2022-08-19T00:44:59;100421.00;;;23.10
16956;BMP180;8594;52.052;8.354;2022-08-19T00:47:26;100413.00;;;23.30
16956;BMP180;8594;52.052;8.354;2022-08-19T00:49:57;100419.00;;;23.50
16956;BMP180;8594;52.052;8.354;2022-08-19T00:52:28;100410.00;;;23.30
16956;BMP180;8594;52.052;8.354;2022-08-19T00:54:58;100403.00;;;23.50
16956;BMP180;8594;52.052;8.354;2022-08-19T00:57:30;100394.00;;;23.20
16956;BMP180;8594;52.052;8.354;2022-08-19T00:59:59;100392.00;;;23.20
16956;BMP180;8594;52.052;8.354;2022-08-19T01:02:29;100394.00;;;22.70
16956;BMP180;8594;52.052;8.354;2022-08-19T01:04:56;100399.00;;;22.90
16956;BMP180;8594;52.052;8.354;2022-08-19T01:07:23;100395.00;;;22.80
16956;BMP180;8594;52.052;8.354;2022-08-19T01:09:51;100400.00;;;22.90
16956;BMP180;8594;52.052;8.354;2022-08-19T01:12:19;100404.00;;;23.00
16956;BMP180;8594;52.052;8.354;2022-08-19T01:14:47;100402.00;;;22.80
16956;BMP180;8594;52.052;8.354;2022-08-19T01:17:16;100400.00;;;23.00
16956;BMP180;8594;52.052;8.354;2022-08-19T01:19:45;100402.00;;;23.00
16956;BMP180;8594;52.052;8.354;2022-08-19T01:22:25;100394.00;;;22.90
16956;BMP180;8594;52.052;8.354;2022-08-19T01:24:53;100396.00;;;23.00
16956;BMP180;8594;52.052;8.354;2022-08-19T01:27:20;100393.00;;;23.10
16956;BMP180;8594;52.052;8.354;2022-08-19T01:29:47;100402.00;;;23.10
16956;BMP180;8594;52.052;8.354;2022-08-19T01:32:16;100391.00;;;22.80
16956;BMP180;8594;52.052;8.354;2022-08-19T01:34:45;100394.00;;;22.90
16956;BMP180;8594;52.052;8.354;2022-08-19T01:37:14;100398.00;;;22.70
16956;BMP180;8594;52.052;8.354;2022-08-19T01:39:43;100393.00;;;22.60
16956;BMP180;8594;52.052;8.354;2022-08-19T01:42:10;100386.00;;;22.90
16956;BMP180;8594;52.052;8.354;2022-08-19T01:44:39;100378.00;;;22.80
16956;BMP180;8594;52.052;8.354;2022-08-19T01:47:07;100371.00;;;22.70
16956;BMP180;8594;52.052;8.354;2022-08-19T01:49:36;100365.00;;;23.10
16956;BMP180;8594;52.052;8.354;2022-08-19T01:52:05;100356.00;;;22.80
16956;BMP180;8594;52.052;8.354;2022-08-19T01:54:32;100351.00;;;22.80
16956;BMP180;8594;52.052;8.354;2022-08-19T01:57:05;100352.00;;;22.90
16956;BMP180;8594;52.052;8.354;2022-08-19T01:59:33;100358.00;;;22.40
16956;BMP180;8594;52.052;8.354;2022-08-19T02:02:04;100349.00;;;22.20
16956;BMP180;8594;52.052;8.354;2022-08-19T02:04:31;100342.00;;;22.20
16956;BMP180;8594;52.052;8.354;2022-08-19T02:06:58;100341.00;;;22.20
16956;BMP180;8594;52.052;8.354;2022-08-19T02:09:25;100345.00;;;22.10
16956;BMP180;8594;52.052;8.354;2022-08-19T02:11:51;100344.00;;;22.30
16956;BMP180;8594;52.052;8.354;2022-08-19T02:14:20;100344.00;;;22.20
16956;BMP180;8594;52.052;8.354;2022-08-19T02:16:46;100346.00;;;22.30
16956;BMP180;8594;52.052;8.354;2022-08-19T02:19:13;100340.00;;;22.30
16956;BMP180;8594;52.052;8.354;2022-08-19T02:21:40;100336.00;;;22.10
16956;BMP180;8594;52.052;8.354;2022-08-19T02:24:08;100340.00;;;22.30
16956;BMP180;8594;52.052;8.354;2022-08-19T02:26:35;100342.00;;;22.30
16956;BMP180;8594;52.052;8.354;2022-08-19T02:29:03;100332.00;;;22.40
16956;BMP180;8594;52.052;8.354;2022-08-19T02:31:31;100337.00;;;22.40
16956;BMP180;8594;52.052;8.354;2022-08-19T02:33:58;100335.00;;;22.30
16956;BMP180;8594;52.052;8.354;2022-08-19T02:36:26;100340.00;;;22.20
16956;BMP180;8594;52.052;8.354;2022-08-19T02:38:54;100342.00;;;22.30
16956;BMP180;8594;52.052;8.354;2022-08-19T02:41:23;100344.00;;;22.20
16956;BMP180;8594;52.052;8.354;2022-08-19T02:43:50;100340.00;;;22.00
16956;BMP180;8594;52.052;8.354;2022-08-19T02:46:21;100347.00;;;21.80
16956;BMP180;8594;52.052;8.354;2022-08-19T02:48:52;100350.00;;;22.00
16956;BMP180;8594;52.052;8.354;2022-08-19T02:51:23;100342.00;;;22.20
16956;BMP180;8594;52.052;8.354;2022-08-19T02:53:50;100346.00;;;22.50
16956;BMP180;8594;52.052;8.354;2022-08-19T02:56:17;100338.00;;;22.80
16956;BMP180;8594;52.052;8.354;2022-08-19T02:58:44;100342.00;;;22.10
16956;BMP180;8594;52.052;8.354;2022-08-19T03:01:21;100343.00;;;22.30
16956;BMP180;8594;52.052;8.354;2022-08-19T03:03:50;100343.00;;;22.10
16956;BMP180;8594;52.052;8.354;2022-08-19T03:06:17;100345.00;;;21.80
16956;BMP180;8594;52.052;8.354;2022-08-19T03:08:47;100349.00;;;21.80
16956;BMP180;8594;52.052;8.354;2022-08-19T03:11:15;100356.00;;;21.90
16956;BMP180;8594;52.052;8.354;2022-08-19T03:13:42;100355.00;;;21.90
16956;BMP180;8594;52.052;8.354;2022-08-19T03:16:10;100371.00;;;22.10
16956;BMP180;8594;52.052;8.354;2022-08-19T03:18:38;100375.00;;;21.90
16956;BMP180;8594;52.052;8.354;2022-08-19T03:21:07;100369.00;;;21.80
16956;BMP180;8594;52.052;8.354;2022-08-19T03:23:34;100370.00;;;22.00
16956;BMP180;8594;52.052;8.354;2022-08-19T03:26:04;100361.00;;;21.80
16956;BMP180;8594;52.052;8.354;2022-08-19T03:28:32;100363.00;;;21.90
16956;BMP180;8594;52.052;8.354;2022-08-19T03:31:02;100360.00;;;22.00
16956;BMP180;8594;52.052;8.354;2022-08-19T03:33:31;100367.00;;;22.00
16956;BMP180;8594;52.052;8.354;2022-08-19T03:36:12;100373.00;;;22.00
16956;BMP180;8594;52.052;8.354;2022-08-19T03:38:46;100369.00;;;22.00
16956;BMP180;8594;52.052;8.354;2022-08-19T03:41:16;100370.00;;;22.00
16956;BMP180;8594;52.052;8.354;2022-08-19T03:43:45;100361.00;;;22.00
16956;BMP180;8594;52.052;8.354;2022-08-19T03:46:15;100372.00;;;22.10
16956;BMP180;8594;52.052;8.354;2022-08-19T03:48:44;100371.00;;;21.90
16956;BMP180;8594;52.052;8.354;2022-08-19T03:51:18;100368.00;;;21.60
16956;BMP180;8594;52.052;8.354;2022-08-19T03:53:47;100367.00;;;21.90
16956;BMP180;8594;52.052;8.354;2022-08-19T03:56:15;100371.00;;;21.90
16956;BMP180;8594;52.052;8.354;2022-08-19T03:58:42;100372.00;;;21.50
16956;BMP180;8594;52.052;8.354;2022-08-19T04:01:12;100378.00;;;21.20
16956;BMP180;8594;52.052;8.354;2022-08-19T04:03:39;100389.00;;;21.50
16956;BMP180;8594;52.052;8.354;2022-08-19T04:06:11;100383.00;;;21.20
16956;BMP180;8594;52.052;8.354;2022-08-19T04:08:40;100382.00;;;21.70
16956;BMP180;8594;52.052;8.354;2022-08-19T04:11:08;100379.00;;;21.50
16956;BMP180;8594;52.052;8.354;2022-08-19T04:13:35;100394.00;;;21.30
16956;BMP180;8594;52.052;8.354;2022-08-19T04:16:03;100398.00;;;21.40
16956;BMP180;8594;52.052;8.354;2022-08-19T04:18:30;100395.00;;;21.40
16956;BMP180;8594;52.052;8.354;2022-08-19T04:20:57;100394.00;;;21.30
16956;BMP180;8594;52.052;8.354;2022-08-19T04:23:24;100388.00;;;21.40
16956;BMP180;8594;52.052;8.354;2022-08-19T04:25:52;100391.00;;;21.30
16956;BMP180;8594;52.052;8.354;2022-08-19T04:28:19;100375.00;;;21.50
16956;BMP180;8594;52.052;8.354;2022-08-19T04:30:50;100373.00;;;21.50
16956;BMP180;8594;52.052;8.354;2022-08-19T04:33:20;100374.00;;;21.40
16956;BMP180;8594;52.052;8.354;2022-08-19T04:35:50;100377.00;;;21.40
16956;BMP180;8594;52.052;8.354;2022-08-19T04:38:20;100371.00;;;21.50
16956;BMP180;8594;52.052;8.354;2022-08-19T04:40:51;100373.00;;;21.50
16956;BMP180;8594;52.052;8.354;2022-08-19T04:43:39;100379.00;;;21.30
16956;BMP180;8594;52.052;8.354;2022-08-19T04:46:07;100373.00;;;21.50
16956;BMP180;8594;52.052;8.354;2022-08-19T04:48:34;100381.00;;;21.40
16956;BMP180;8594;52.052;8.354;2022-08-19T04:51:06;100391.00;;;21.00
16956;BMP180;8594;52.052;8.354;2022-08-19T04:53:37;100386.00;;;21.20
16956;BMP180;8594;52.052;8.354;2022-08-19T04:56:08;100387.00;;;21.10
16956;BMP180;8594;52.052;8.354;2022-08-19T04:58:38;100394.00;;;21.00
16956;BMP180;8594;52.052;8.354;2022-08-19T05:01:05;100393.00;;;21.30
16956;BMP180;8594;52.052;8.354;2022-08-19T05:03:33;100390.00;;;21.60
16956;BMP180;8594;52.052;8.354;2022-08-19T05:06:05;100398.00;;;21.70
16956;BMP180;8594;52.052;8.354;2022-08-19T05:08:35;100405.00;;;21.50
16956;BMP180;8594;52.052;8.354;2022-08-19T05:11:11;100397.00;;;21.40
16956;BMP180;8594;52.052;8.354;2022-08-19T05:13:39;100399.00;;;21.40
16956;BMP180;8594;52.052;8.354;2022-08-19T05:16:06;100399.00;;;21.60
16956;BMP180;8594;52.052;8.354;2022-08-19T05:18:33;100402.00;;;22.00
16956;BMP180;8594;52.052;8.354;2022-08-19T05:21:20;100393.00;;;22.00
16956;BMP180;8594;52.052;8.354;2022-08-19T05:24:05;100413.00;;;22.30
16956;BMP180;8594;52.052;8.354;2022-08-19T05:26:36;100415.00;;;22.70
16956;BMP180;8594;52.052;8.354;2022-08-19T05:29:03;100413.00;;;22.80
16956;BMP180;8594;52.052;8.354;2022-08-19T05:31:31;100404.00;;;22.80
16956;BMP180;8594;52.052;8.354;2022-08-19T05:33:58;100402.00;;;22.40
16956;BMP180;8594;52.052;8.354;2022-08-19T05:36:25;100400.00;;;22.60
16956;BMP180;8594;52.052;8.354;2022-08-19T05:38:53;100398.00;;;22.40
16956;BMP180;8594;52.052;8.354;2022-08-19T05:41:21;100403.00;;;22.60
16956;BMP180;8594;52.052;8.354;2022-08-19T05:43:56;100392.00;;;22.60
16956;BMP180;8594;52.052;8.354;2022-08-19T05:46:23;100396.00;;;22.60
16956;BMP180;8594;52.052;8.354;2022-08-19T05:48:50;100391.00;;;22.70
16956;BMP180;8594;52.052;8.354;2022-08-19T05:51:17;100386.00;;;23.00
16956;BMP180;8594;52.052;8.354;2022-08-19T05:53:44;100376.00;;;23.30
16956;BMP180;8594;52.052;8.354;2022-08-19T05:56:14;100374.00;;;23.90
16956;BMP180;8594;52.052;8.354;2022-08-19T05:58:42;100373.00;;;23.90
16956;BMP180;8594;52.052;8.354;2022-08-19T06:01:13;100375.00;;;23.90
16956;BMP180;8594;52.052;8.354;2022-08-19T06:03:41;100372.00;;;23.80
16956;BMP180;8594;52.052;8.354;2022-08-19T06:06:09;100373.00;;;23.80
16956;BMP180;8594;52.052;8.354;2022-08-19T06:08:37;100382.00;;;23.80
16956;BMP180;8594;52.052;8.354;2022-08-19T06:11:21;100376.00;;;23.70
16956;BMP180;8594;52.052;8.354;2022-08-19T06:13:52;100374.00;;;23.90
16956;BMP180;8594;52.052;8.354;2022-08-19T06:16:22;100377.00;;;24.20
16956;BMP180;8594;52.052;8.354;2022-08-19T06:18:50;100359.00;;;25.00
16956;BMP180;8594;52.052;8.354;2022-08-19T06:21:19;100368.00;;;25.60
16956;BMP180;8594;52.052;8.354;2022-08-19T06:23:46;100364.00;;;26.60
16956;BMP180;8594;52.052;8.354;2022-08-19T06:26:14;100361.00;;;26.80
16956;BMP180;8594;52.052;8.354;2022-08-19T06:28:42;100361.00;;;26.80
16956;BMP180;8594;52.052;8.354;2022-08-19T06:31:12;100366.00;;;27.10
16956;BMP180;8594;52.052;8.354;2022-08-19T06:33:41;100368.00;;;28.00
16956;BMP180;8594;52.052;8.354;2022-08-19T06:36:17;100368.00;;;27.30
16956;BMP180;8594;52.052;8.354;2022-08-19T06:38:44;100366.00;;;28.70
16956;BMP180;8594;52.052;8.354;2022-08-19T06:41:11;100364.00;;;28.90
16956;BMP180;8594;52.052;8.354;2022-08-19T06:43:38;100360.00;;;28.60
16956;BMP180;8594;52.052;8.354;2022-08-19T06:46:12;100377.00;;;29.20
16956;BMP180;8594;52.052;8.354;2022-08-19T06:48:40;100386.00;;;28.90
16956;BMP180;8594;52.052;8.354;2022-08-19T06:51:07;100389.00;;;29.70
16956;BMP180;8594;52.052;8.354;2022-08-19T06:53:34;100394.00;;;29.30
16956;BMP180;8594;52.052;8.354;2022-08-19T06:56:02;100393.00;;;29.80
16956;BMP180;8594;52.052;8.354;2022-08-19T06:58:29;100395.00;;;29.80
16956;BMP180;8594;52.052;8.354;2022-08-19T07:00:59;100394.00;;;30.20
16956;BMP180;8594;52.052;8.354;2022-08-19T07:03:30;100390.00;;;30.40
16956;BMP180;8594;52.052;8.354;2022-08-19T07:06:03;100395.00;;;30.20
16956;BMP180;8594;52.052;8.354;2022-08-19T07:08:31;100400.00;;;30.90
16956;BMP180;8594;52.052;8.354;2022-08-19T07:10:58;100409.00;;;31.10
16956;BMP180;8594;52.052;8.354;2022-08-19T07:13:26;100415.00;;;31.10
16956;BMP180;8594;52.052;8.354;2022-08-19T07:15:52;100422.00;;;30.50
16956;BMP180;8594;52.052;8.354;2022-08-19T07:18:20;100428.00;;;31.40
16956;BMP180;8594;52.052;8.354;2022-08-19T07:20:48;100427.00;;;31.40
16956;BMP180;8594;52.052;8.354;2022-08-19T07:23:16;100425.00;;;32.10
16956;BMP180;8594;52.052;8.354;2022-08-19T07:25:43;100423.00;;;31.80
16956;BMP180;8594;52.052;8.354;2022-08-19T07:28:11;100420.00;;;31.80
16956;BMP180;8594;52.052;8.354;2022-08-19T07:30:38;100421.00;;;32.10
16956;BMP180;8594;52.052;8.354;2022-08-19T07:33:06;100420.00;;;31.70
16956;BMP180;8594;52.052;8.354;2022-08-19T07:35:33;100426.00;;;32.30
16956;BMP180;8594;52.052;8.354;2022-08-19T07:38:01;100431.00;;;31.90
16956;BMP180;8594;52.052;8.354;2022-08-19T07:40:30;100446.00;;;32.50
16956;BMP180;8594;52.052;8.354;2022-08-19T07:42:57;100450.00;;;32.40
16956;BMP180;8594;52.052;8.354;2022-08-19T07:45:24;100452.00;;;32.00
16956;BMP180;8594;52.052;8.354;2022-08-19T07:47:52;100453.00;;;32.70
16956;BMP180;8594;52.052;8.354;2022-08-19T07:50:21;100457.00;;;31.90
16956;BMP180;8594;52.052;8.354;2022-08-19T07:52:49;100454.00;;;32.30
16956;BMP180;8594;52.052;8.354;2022-08-19T07:55:20;100456.00;;;31.00
16956;BMP180;8594;52.052;8.354;2022-08-19T07:57:49;100459.00;;;32.20
16956;BMP180;8594;52.052;8.354;2022-08-19T08:00:17;100462.00;;;32.00
16956;BMP180;8594;52.052;8.354;2022-08-19T08:02:44;100459.00;;;33.10
16956;BMP180;8594;52.052;8.354;2022-08-19T08:05:11;100469.00;;;32.70
16956;BMP180;8594;52.052;8.354;2022-08-19T08:07:56;100466.00;;;31.90
16956;BMP180;8594;52.052;8.354;2022-08-19T08:10:40;100472.00;;;32.80
16956;BMP180;8594;52.052;8.354;2022-08-19T08:13:08;100473.00;;;33.40
16956;BMP180;8594;52.052;8.354;2022-08-19T08:15:36;100472.00;;;33.40
16956;BMP180;8594;52.052;8.354;2022-08-19T08:18:03;100484.00;;;34.00
16956;BMP180;8594;52.052;8.354;2022-08-19T08:20:31;100475.00;;;32.90
16956;BMP180;8594;52.052;8.354;2022-08-19T08:22:58;100481.00;;;34.00
16956;BMP180;8594;52.052;8.354;2022-08-19T08:25:42;100481.00;;;33.60
16956;BMP180;8594;52.052;8.354;2022-08-19T08:28:10;100474.00;;;33.90
16956;BMP180;8594;52.052;8.354;2022-08-19T08:30:37;100488.00;;;33.90
16956;BMP180;8594;52.052;8.354;2022-08-19T08:33:07;100477.00;;;33.20
16956;BMP180;8594;52.052;8.354;2022-08-19T08:35:34;100478.00;;;33.50
16956;BMP180;8594;52.052;8.354;2022-08-19T08:38:03;100469.00;;;33.40
16956;BMP180;8594;52.052;8.354;2022-08-19T08:40:43;100463.00;;;33.00
16956;BMP180;8594;52.052;8.354;2022-08-19T08:43:23;100467.00;;;33.60
16956;BMP180;8594;52.052;8.354;2022-08-19T08:45:59;100464.00;;;32.90
16956;BMP180;8594;52.052;8.354;2022-08-19T08:48:37;100470.00;;;33.70
16956;BMP180;8594;52.052;8.354;2022-08-19T08:51:10;100476.00;;;33.60
16956;BMP180;8594;52.052;8.354;2022-08-19T08:53:38;100482.00;;;34.10
16956;BMP180;8594;52.052;8.354;2022-08-19T08:56:09;100477.00;;;33.60
16956;BMP180;8594;52.052;8.354;2022-08-19T08:58:50;100476.00;;;33.30
16956;BMP180;8594;52.052;8.354;2022-08-19T09:01:17;100477.00;;;33.70
16956;BMP180;8594;52.052;8.354;2022-08-19T09:03:45;100472.00;;;33.50
16956;BMP180;8594;52.052;8.354;2022-08-19T09:06:19;100473.00;;;34.00
16956;BMP180;8594;52.052;8.354;2022-08-19T09:08:59;100476.00;;;33.80
16956;BMP180;8594;52.052;8.354;2022-08-19T09:11:44;100472.00;;;33.20
16956;BMP180;8594;52.052;8.354;2022-08-19T09:14:32;100470.00;;;33.30
16956;BMP180;8594;52.052;8.354;2022-08-19T09:17:00;100467.00;;;33.60
16956;BMP180;8594;52.052;8.354;2022-08-19T09:19:29;100479.00;;;32.80
16956;BMP180;8594;52.052;8.354;2022-08-19T09:21:57;100471.00;;;32.90
16956;BMP180;8594;52.052;8.354;2022-08-19T09:24:25;100470.00;;;32.90
16956;BMP180;8594;52.052;8.354;2022-08-19T09:26:52;100479.00;;;32.90
16956;BMP180;8594;52.052;8.354;2022-08-19T09:29:20;100473.00;;;33.20
16956;BMP180;8594;52.052;8.354;2022-08-19T09:31:47;100482.00;;;32.00
16956;BMP180;8594;52.052;8.354;2022-08-19T09:34:14;100483.00;;;32.20
16956;BMP180;8594;52.052;8.354;2022-08-19T09:36:41;100476.00;;;32.00
16956;BMP180;8594;52.052;8.354;2022-08-19T09:39:08;100487.00;;;31.50
16956;BMP180;8594;52.052;8.354;2022-08-19T09:41:35;100472.00;;;32.20
16956;BMP180;8594;52.052;8.354;2022-08-19T09:44:02;100483.00;;;31.80
16956;BMP180;8594;52.052;8.354;2022-08-19T09:46:30;100477.00;;;31.90
16956;BMP180;8594;52.052;8.354;2022-08-19T09:48:59;100467.00;;;32.40
16956;BMP180;8594;52.052;8.354;2022-08-19T09:51:27;100475.00;;;33.20
16956;BMP180;8594;52.052;8.354;2022-08-19T09:53:59;100478.00;;;32.60
16956;BMP180;8594;52.052;8.354;2022-08-19T09:56:27;100483.00;;;32.90
16956;BMP180;8594;52.052;8.354;2022-08-19T09:58:54;100484.00;;;33.00
16956;BMP180;8594;52.052;8.354;2022-08-19T10:01:24;100491.00;;;32.40
16956;BMP180;8594;52.052;8.354;2022-08-19T10:03:56;100494.00;;;31.50
16956;BMP180;8594;52.052;8.354;2022-08-19T10:06:27;100477.00;;;31.90
16956;BMP180;8594;52.052;8.354;2022-08-19T10:08:57;100477.00;;;32.00
16956;BMP180;8594;52.052;8.354;2022-08-19T10:11:24;100473.00;;;32.70
16956;BMP180;8594;52.052;8.354;2022-08-19T10:13:52;100471.00;;;32.40
16956;BMP180;8594;52.052;8.354;2022-08-19T10:16:22;100482.00;;;32.10
16956;BMP180;8594;52.052;8.354;2022-08-19T10:18:52;100483.00;;;31.20
16956;BMP180;8594;52.052;8.354;2022-08-19T10:21:23;100477.00;;;31.30
16956;BMP180;8594;52.052;8.354;2022-08-19T10:23:54;100471.00;;;32.10
16956;BMP180;8594;52.052;8.354;2022-08-19T10:26:25;100476.00;;;32.10
16956;BMP180;8594;52.052;8.354;2022-08-19T10:28:52;100471.00;;;32.30
16956;BMP180;8594;52.052;8.354;2022-08-19T10:31:26;100458.00;;;32.50
16956;BMP180;8594;52.052;8.354;2022-08-19T10:33:56;100475.00;;;32.40
16956;BMP180;8594;52.052;8.354;2022-08-19T10:36:26;100469.00;;;32.40
16956;BMP180;8594;52.052;8.354;2022-08-19T10:38:57;100467.00;;;32.80
16956;BMP180;8594;52.052;8.354;2022-08-19T10:41:29;100473.00;;;32.70
16956;BMP180;8594;52.052;8.354;2022-08-19T10:43:59;100464.00;;;32.40
16956;BMP180;8594;52.052;8.354;2022-08-19T10:46:28;100452.00;;;31.70
16956;BMP180;8594;52.052;8.354;2022-08-19T10:49:00;100463.00;;;32.20
16956;BMP180;8594;52.052;8.354;2022-08-19T10:51:27;100464.00;;;32.80
16956;BMP180;8594;52.052;8.354;2022-08-19T10:54:27;100456.00;;;31.90
16956;BMP180;8594;52.052;8.354;2022-08-19T10:57:20;100439.00;;;32.80
16956;BMP180;8594;52.052;8.354;2022-08-19T10:59:49;100432.00;;;32.90
16956;BMP180;8594;52.052;8.354;2022-08-19T11:02:16;100449.00;;;33.60
16956;BMP180;8594;52.052;8.354;2022-08-19T11:04:44;100441.00;;;33.10
16956;BMP180;8594;52.052;8.354;2022-08-19T11:07:11;100435.00;;;33.70
16956;BMP180;8594;52.052;8.354;2022-08-19T11:09:41;100452.00;;;32.50
16956;BMP180;8594;52.052;8.354;2022-08-19T11:12:09;100429.00;;;32.20
16956;BMP180;8594;52.052;8.354;2022-08-19T11:14:38;100430.00;;;32.50
16956;BMP180;8594;52.052;8.354;2022-08-19T11:17:06;100442.00;;;32.00
16956;BMP180;8594;52.052;8.354;2022-08-19T11:19:33;100442.00;;;31.70
16956;BMP180;8594;52.052;8.354;2022-08-19T11:22:02;100442.00;;;31.80
16956;BMP180;8594;52.052;8.354;2022-08-19T11:24:30;100429.00;;;32.00
16956;BMP180;8594;52.052;8.354;2022-08-19T11:27:03;100434.00;;;32.40
16956;BMP180;8594;52.052;8.354;2022-08-19T11:29:32;100440.00;;;31.50
16956;BMP180;8594;52.052;8.354;2022-08-19T11:32:02;100435.00;;;32.00
16956;BMP180;8594;52.052;8.354;2022-08-19T11:34:30;100437.00;;;31.70
16956;BMP180;8594;52.052;8.354;2022-08-19T11:36:57;100429.00;;;32.20
16956;BMP180;8594;52.052;8.354;2022-08-19T11:39:29;100429.00;;;31.80
16956;BMP180;8594;52.052;8.354;2022-08-19T11:41:58;100429.00;;;31.80
16956;BMP180;8594;52.052;8.354;2022-08-19T11:44:26;100424.00;;;31.80
16956;BMP180;8594;52.052;8.354;2022-08-19T11:46:56;100427.00;;;32.10
16956;BMP180;8594;52.052;8.354;2022-08-19T11:49:23;100417.00;;;31.70
16956;BMP180;8594;52.052;8.354;2022-08-19T11:51:50;100422.00;;;31.50
16956;BMP180;8594;52.052;8.354;2022-08-19T11:54:17;100426.00;;;31.40
16956;BMP180;8594;52.052;8.354;2022-08-19T11:56:46;100429.00;;;31.30
16956;BMP180;8594;52.052;8.354;2022-08-19T11:59:14;100425.00;;;31.10
16956;BMP180;8594;52.052;8.354;2022-08-19T12:01:42;100422.00;;;30.70
16956;BMP180;8594;52.052;8.354;2022-08-19T12:04:10;100432.00;;;30.90
16956;BMP180;8594;52.052;8.354;2022-08-19T12:06:39;100423.00;;;31.10
16956;BMP180;8594;52.052;8.354;2022-08-19T12:09:09;100422.00;;;30.80
16956;BMP180;8594;52.052;8.354;2022-08-19T12:11:36;100414.00;;;30.90
16956;BMP180;8594;52.052;8.354;2022-08-19T12:14:06;100417.00;;;30.60
16956;BMP180;8594;52.052;8.354;2022-08-19T12:16:34;100417.00;;;31.90
16956;BMP180;8594;52.052;8.354;2022-08-19T12:19:03;100418.00;;;31.40
16956;BMP180;8594;52.052;8.354;2022-08-19T12:21:33;100408.00;;;31.70
16956;BMP180;8594;52.052;8.354;2022-08-19T12:24:03;100400.00;;;32.10
16956;BMP180;8594;52.052;8.354;2022-08-19T12:26:31;100402.00;;;32.70
16956;BMP180;8594;52.052;8.354;2022-08-19T12:28:59;100404.00;;;32.40
16956;BMP180;8594;52.052;8.354;2022-08-19T12:31:28;100394.00;;;32.90
16956;BMP180;8594;52.052;8.354;2022-08-19T12:33:56;100405.00;;;31.80
16956;BMP180;8594;52.052;8.354;2022-08-19T12:36:23;100399.00;;;31.40
16956;BMP180;8594;52.052;8.354;2022-08-19T12:38:51;100401.00;;;32.20
16956;BMP180;8594;52.052;8.354;2022-08-19T12:41:19;100394.00;;;32.20
16956;BMP180;8594;52.052;8.354;2022-08-19T12:43:48;100386.00;;;32.50
16956;BMP180;8594;52.052;8.354;2022-08-19T12:46:16;100389.00;;;32.60
16956;BMP180;8594;52.052;8.354;2022-08-19T12:48:45;100385.00;;;32.60
16956;BMP180;8594;52.052;8.354;2022-08-19T12:51:16;100382.00;;;32.60
16956;BMP180;8594;52.052;8.354;2022-08-19T12:53:45;100382.00;;;32.90
16956;BMP180;8594;52.052;8.354;2022-08-19T12:56:13;100382.00;;;32.40
16956;BMP180;8594;52.052;8.354;2022-08-19T12:58:41;100379.00;;;32.70
16956;BMP180;8594;52.052;8.354;2022-08-19T13:01:11;100375.00;;;33.30
16956;BMP180;8594;52.052;8.354;2022-08-19T13:03:39;100377.00;;;33.40
16956;BMP180;8594;52.052;8.354;2022-08-19T13:06:08;100370.00;;;34.00
16956;BMP180;8594;52.052;8.354;2022-08-19T13:08:36;100364.00;;;33.60
16956;BMP180;8594;52.052;8.354;2022-08-19T13:11:09;100360.00;;;33.40
16956;BMP180;8594;52.052;8.354;2022-08-19T13:13:40;100370.00;;;33.60
16956;BMP180;8594;52.052;8.354;2022-08-19T13:16:08;100369.00;;;33.70
16956;BMP180;8594;52.052;8.354;2022-08-19T13:18:35;100373.00;;;34.00
16956;BMP180;8594;52.052;8.354;2022-08-19T13:21:03;100371.00;;;34.70
16956;BMP180;8594;52.052;8.354;2022-08-19T13:23:33;100369.00;;;34.00
16956;BMP180;8594;52.052;8.354;2022-08-19T13:26:05;100364.00;;;33.70
16956;BMP180;8594;52.052;8.354;2022-08-19T13:28:34;100356.00;;;34.20
16956;BMP180;8594;52.052;8.354;2022-08-19T13:31:17;100365.00;;;34.60
16956;BMP180;8594;52.052;8.354;2022-08-19T13:34:02;100365.00;;;34.10
16956;BMP180;8594;52.052;8.354;2022-08-19T13:36:28;100371.00;;;33.80
16956;BMP180;8594;52.052;8.354;2022-08-19T13:38:57;100357.00;;;33.30
16956;BMP180;8594;52.052;8.354;2022-08-19T13:41:24;100362.00;;;32.90
16956;BMP180;8594;52.052;8.354;2022-08-19T13:43:51;100353.00;;;32.90
16956;BMP180;8594;52.052;8.354;2022-08-19T13:46:18;100352.00;;;34.00
16956;BMP180;8594;52.052;8.354;2022-08-19T13:48:45;100351.00;;;33.40
16956;BMP180;8594;52.052;8.354;2022-08-19T13:51:13;100354.00;;;33.30
16956;BMP180;8594;52.052;8.354;2022-08-19T13:53:42;100352.00;;;33.90
16956;BMP180;8594;52.052;8.354;2022-08-19T13:56:14;100350.00;;;33.20
16956;BMP180;8594;52.052;8.354;2022-08-19T13:58:42;100359.00;;;32.80
16956;BMP180;8594;52.052;8.354;2022-08-19T14:01:10;100353.00;;;33.00
16956;BMP180;8594;52.052;8.354;2022-08-19T14:03:38;100350.00;;;33.40
16956;BMP180;8594;52.052;8.354;2022-08-19T14:06:05;100352.00;;;33.70
16956;BMP180;8594;52.052;8.354;2022-08-19T14:08:32;100352.00;;;33.70
16956;BMP180;8594;52.052;8.354;2022-08-19T14:10:59;100347.00;;;33.40
16956;BMP180;8594;52.052;8.354;2022-08-19T14:13:27;100352.00;;;33.40
16956;BMP180;8594;52.052;8.354;2022-08-19T14:15:54;100355.00;;;33.50
16956;BMP180;8594;52.052;8.354;2022-08-19T14:18:20;100353.00;;;33.40
16956;BMP180;8594;52.052;8.354;2022-08-19T14:20:47;100348.00;;;33.30